Time;durP1;ratioP1;P1;durP2;ratioP2;P2;SDS_P1;SDS_P2;PMS_P1;PMS_P2;Temp;Humidity;BMP_temperature;BMP_pressure;BME280_temperature;BME280_humidity;BME280_pressure;Samples;Min_cycle;Max_cycle;Signal;HPM_P1;HPM_P2
2023/03/28 00:01:01;;;;;;;3.43;1.60;;;;;;;2.19;100.00;98931.56;5075622;28;20215;-76
2023/03/28 00:03:28;;;;;;;4.27;1.90;;;;;;;2.20;100.00;98935.00;5075453;28;20228;-76
2023/03/28 00:05:59;;;;;;;3.63;1.27;;;;;;;2.19;100.00;98935.97;5075488;28;20236;-76
2023/03/28 00:08:27;;;;;;;4.40;2.03;;;;;;;2.14;100.00;98938.19;5075168;28;20668;-76
2023/03/28 00:11:04;;;;;;;4.17;1.53;;;;;;;2.11;100.00;98934.06;5075510;28;20258;-76
2023/03/28 00:13:31;;;;;;;4.23;1.40;;;;;;;2.12;100.00;98943.59;5075295;28;20315;-76
2023/03/28 00:16:04;;;;;;;2.90;1.50;;;;;;;2.01;100.00;98951.66;5075357;28;20205;-76
2023/03/28 00:18:31;;;;;;;4.40;1.53;;;;;;;2.03;100.00;98951.50;5075193;28;20300;-76
2023/03/28 00:20:58;;;;;;;2.37;1.43;;;;;;;2.03;100.00;98951.50;5075149;28;20211;-76
2023/03/28 00:23:26;;;;;;;3.07;1.70;;;;;;;2.02;100.00;98963.78;5075366;28;20311;-76
2023/03/28 00:25:53;;;;;;;2.20;1.43;;;;;;;2.05;100.00;98957.44;5075154;28;20204;-76
2023/03/28 00:28:19;;;;;;;4.60;1.23;;;;;;;2.03;100.00;98960.19;5075363;28;20568;-76
2023/03/28 00:30:45;;;;;;;2.67;1.30;;;;;;;1.92;100.00;98970.03;5075044;28;20208;-76
2023/03/28 00:33:12;;;;;;;3.23;1.27;;;;;;;1.92;100.00;98964.78;5074615;28;20263;-75
2023/03/28 00:35:38;;;;;;;3.63;1.40;;;;;;;1.94;100.00;98965.47;5075204;28;20208;-76
2023/03/28 00:38:04;;;;;;;4.33;1.67;;;;;;;1.92;100.00;98968.25;5073789;28;20220;-76
2023/03/28 00:40:35;;;;;;;2.93;1.37;;;;;;;1.90;100.00;98967.53;5074553;28;20606;-76
2023/03/28 00:43:02;;;;;;;3.07;1.60;;;;;;;1.99;100.00;98981.63;5074750;28;20225;-76
2023/03/28 00:45:28;;;;;;;4.23;1.67;;;;;;;1.84;100.00;98980.38;5074411;28;20568;-76
2023/03/28 00:48:07;;;;;;;2.13;1.33;;;;;;;1.85;100.00;98969.75;5074685;28;20209;-76
2023/03/28 00:50:47;;;;;;;3.53;1.30;;;;;;;1.88;100.00;98979.13;5056930;28;20211;-76
2023/03/28 00:53:17;;;;;;;2.83;1.27;;;;;;;1.84;100.00;98985.63;5074222;28;20637;-76
2023/03/28 00:55:48;;;;;;;5.07;1.80;;;;;;;1.79;100.00;98982.63;5040473;28;20193;-76
2023/03/28 00:58:21;;;;;;;3.97;1.47;;;;;;;1.86;100.00;98979.31;5057071;28;20212;-76
2023/03/28 01:00:48;;;;;;;3.67;1.50;;;;;;;1.74;100.00;98974.34;5074512;28;20250;-76
2023/03/28 01:03:15;;;;;;;2.33;1.43;;;;;;;1.78;100.00;98978.34;5074080;28;20221;-76
2023/03/28 01:05:43;;;;;;;3.30;1.70;;;;;;;1.87;100.00;98980.97;5074365;28;20209;-76
2023/03/28 01:08:20;;;;;;;4.97;1.50;;;;;;;1.91;100.00;98987.56;5074290;28;20204;-76
2023/03/28 01:10:47;;;;;;;6.13;2.00;;;;;;;1.83;100.00;98989.22;5074809;28;20188;-76
2023/03/28 01:13:18;;;;;;;2.67;1.43;;;;;;;1.80;100.00;98977.22;5074078;28;20220;-75
2023/03/28 01:15:46;;;;;;;3.10;1.47;;;;;;;1.81;100.00;98973.63;5074384;28;20193;-75
2023/03/28 01:18:15;;;;;;;2.03;1.30;;;;;;;1.84;100.00;98978.59;5073745;28;20636;-75
2023/03/28 01:21:06;;;;;;;3.53;1.53;;;;;;;1.79;100.00;98977.38;5074019;28;20211;-76
2023/03/28 01:23:50;;;;;;;3.53;1.20;;;;;;;1.81;100.00;98973.63;5073989;28;20220;-76
2023/03/28 01:26:36;;;;;;;3.50;1.60;;;;;;;1.79;100.00;98975.59;5074017;28;20188;-76
2023/03/28 01:29:34;;;;;;;3.07;1.57;;;;;;;1.84;100.00;98983.00;5073952;28;20219;-75
2023/03/28 01:32:22;;;;;;;1.77;1.50;;;;;;;1.74;100.00;98977.81;5073773;28;20197;-75
2023/03/28 01:34:48;;;;;;;2.27;1.40;;;;;;;1.79;100.00;98980.00;5073865;28;20208;-76
2023/03/28 01:37:36;;;;;;;4.40;1.30;;;;;;;1.70;100.00;98994.78;5073469;28;20771;-76
2023/03/28 01:40:15;;;;;;;4.47;1.53;;;;;;;1.71;100.00;98999.06;5073762;28;20213;-75
2023/03/28 01:43:02;;;;;;;2.50;1.47;;;;;;;1.74;100.00;99003.19;5040463;28;20234;-75
2023/03/28 01:46:17;;;;;;;2.17;1.40;;;;;;;1.64;100.00;98997.13;5073248;28;20664;-75
2023/03/28 01:48:57;;;;;;;4.03;1.50;;;;;;;1.60;100.00;99001.00;5068338;28;20196;-76
2023/03/28 01:52:05;;;;;;;4.13;1.80;;;;;;;1.72;100.00;98992.84;5073399;28;20184;-76
2023/03/28 01:54:34;;;;;;;3.27;1.60;;;;;;;1.64;100.00;98992.72;5060873;28;20216;-76
2023/03/28 01:57:16;;;;;;;3.80;1.77;;;;;;;1.55;100.00;98997.97;5073532;28;20321;-76
2023/03/28 01:59:49;;;;;;;2.40;1.57;;;;;;;1.56;100.00;98995.22;5073548;28;20220;-76
2023/03/28 02:02:48;;;;;;;2.77;1.70;;;;;;;1.57;100.00;98993.44;5073555;28;20247;-75
2023/03/28 02:05:18;;;;;;;4.57;1.77;;;;;;;1.52;100.00;99000.88;5073099;28;20205;-76
2023/03/28 02:07:47;;;;;;;5.07;1.67;;;;;;;1.57;100.00;98996.88;5073200;28;20205;-75
2023/03/28 02:10:16;;;;;;;4.60;1.77;;;;;;;1.62;100.00;99001.69;5073520;28;20207;-75
2023/03/28 02:12:48;;;;;;;3.43;1.67;;;;;;;1.56;100.00;99005.69;5073400;28;20224;-75
2023/03/28 02:15:18;;;;;;;4.97;2.07;;;;;;;1.51;100.00;99005.28;5073473;28;20189;-76
2023/03/28 02:17:53;;;;;;;2.67;1.90;;;;;;;1.40;100.00;98997.56;5056255;28;20200;-75
2023/03/28 02:20:24;;;;;;;4.37;2.20;;;;;;;1.46;100.00;99007.50;5073372;28;20212;-75
2023/03/28 02:23:02;;;;;;;3.40;1.90;;;;;;;1.45;100.00;99010.25;5073571;28;20235;-76
2023/03/28 02:25:31;;;;;;;3.97;2.10;;;;;;;1.48;100.00;99010.00;5073197;28;20596;-75
2023/03/28 02:28:04;;;;;;;2.80;1.97;;;;;;;1.53;100.00;99002.53;5072954;28;20258;-75
2023/03/28 02:30:31;;;;;;;5.27;2.30;;;;;;;1.44;100.00;99006.00;5056388;28;20184;-76
2023/03/28 02:33:00;;;;;;;4.03;2.03;;;;;;;1.42;100.00;99002.66;5072977;28;20331;-75
2023/03/28 02:35:36;;;;;;;5.10;1.90;;;;;;;1.28;100.00;99009.16;5073189;28;20205;-75
2023/03/28 02:38:31;;;;;;;4.17;1.80;;;;;;;1.23;100.00;99007.91;5055105;28;20199;-75
2023/03/28 02:41:29;;;;;;;3.30;2.10;;;;;;;1.29;100.00;99002.97;5071073;28;20224;-76
2023/03/28 02:44:21;;;;;;;5.90;2.03;;;;;;;1.34;100.00;98997.28;5057490;28;20228;-75
2023/03/28 02:46:57;;;;;;;2.47;1.90;;;;;;;1.30;100.00;98999.38;5041277;28;20193;-75
2023/03/28 02:49:31;;;;;;;3.83;1.53;;;;;;;1.29;100.00;98989.84;5073076;28;20196;-76
2023/03/28 02:52:08;;;;;;;4.30;1.87;;;;;;;1.32;100.00;99000.06;5054952;28;20189;-76
2023/03/28 02:54:42;;;;;;;1.90;1.67;;;;;;;1.21;100.00;98999.38;5073036;28;20192;-75
2023/03/28 02:57:18;;;;;;;2.57;1.70;;;;;;;1.26;100.00;98994.56;5073221;28;20200;-76
2023/03/28 02:59:54;;;;;;;6.00;2.00;;;;;;;1.31;100.00;98998.41;5072873;28;20212;-76
2023/03/28 03:02:21;;;;;;;1.70;1.47;;;;;;;1.25;100.00;99000.75;5074847;28;20699;-75
2023/03/28 03:04:56;;;;;;;3.87;1.90;;;;;;;1.22;100.00;99007.06;5076483;28;20200;-76
2023/03/28 03:07:23;;;;;;;2.50;1.87;;;;;;;1.22;100.00;98996.59;5076547;28;20196;-76
2023/03/28 03:09:52;;;;;;;2.60;1.57;;;;;;;1.25;100.00;99003.34;5076472;28;20566;-75
2023/03/28 03:12:19;;;;;;;4.27;1.93;;;;;;;1.22;100.00;98999.22;5076360;28;20224;-76
2023/03/28 03:14:49;;;;;;;2.90;1.73;;;;;;;1.17;100.00;98998.00;5076290;28;20204;-76
2023/03/28 03:17:16;;;;;;;4.87;1.90;;;;;;;1.10;100.00;98999.50;5076315;28;20211;-75
2023/03/28 03:19:43;;;;;;;4.33;1.70;;;;;;;1.11;100.00;98998.53;5076201;28;20337;-76
2023/03/28 03:22:10;;;;;;;6.17;1.67;;;;;;;1.19;100.00;99006.53;5075793;28;20232;-76
2023/03/28 03:24:36;;;;;;;2.57;1.97;;;;;;;1.28;100.00;99009.16;5076285;28;20216;-76
2023/03/28 03:27:04;;;;;;;2.63;1.90;;;;;;;1.27;100.00;99009.31;5076091;28;20208;-75
2023/03/28 03:29:30;;;;;;;3.97;1.90;;;;;;;1.18;100.00;99000.50;5076054;28;20197;-76
2023/03/28 03:31:56;;;;;;;5.13;1.73;;;;;;;1.16;100.00;98997.16;5075762;28;20205;-75
2023/03/28 03:34:23;;;;;;;2.40;1.87;;;;;;;1.14;100.00;99006.13;5075432;28;20675;-75
2023/03/28 03:36:51;;;;;;;3.07;1.83;;;;;;;1.08;100.00;99004.88;5075474;28;20261;-76
2023/03/28 03:39:18;;;;;;;3.60;1.90;;;;;;;1.12;100.00;99005.44;5075471;28;20689;-76
2023/03/28 03:41:44;;;;;;;4.17;1.90;;;;;;;1.07;100.00;98999.78;5075464;28;20682;-76
2023/03/28 03:44:11;;;;;;;3.80;1.60;;;;;;;1.02;100.00;98999.34;5075726;28;20204;-76
2023/03/28 03:46:37;;;;;;;4.00;1.87;;;;;;;0.97;100.00;98993.69;5075689;28;20210;-76
2023/03/28 03:49:03;;;;;;;2.57;1.53;;;;;;;0.97;100.00;98999.78;5075715;28;20204;-75
2023/03/28 03:51:29;;;;;;;5.60;1.77;;;;;;;1.01;100.00;99001.16;5076345;28;20227;-76
2023/03/28 03:53:58;;;;;;;2.17;1.90;;;;;;;0.93;100.00;99000.16;5075435;28;20225;-76
2023/03/28 03:56:24;;;;;;;1.60;1.43;;;;;;;0.88;100.00;99007.59;5076156;28;20220;-75
2023/03/28 03:58:50;;;;;;;2.87;1.83;;;;;;;0.95;100.00;98993.81;5074939;28;20224;-76
2023/03/28 04:01:17;;;;;;;6.27;2.00;;;;;;;0.92;100.00;98999.34;5075281;28;20207;-76
2023/03/28 04:03:46;;;;;;;5.27;1.83;;;;;;;1.02;100.00;98996.72;5074859;28;20228;-76
2023/03/28 04:06:13;;;;;;;3.03;1.83;;;;;;;0.89;100.00;98998.81;5075069;28;20216;-76
2023/03/28 04:08:39;;;;;;;4.07;2.10;;;;;;;0.91;100.00;98996.88;5074780;28;20643;-76
2023/03/28 04:11:06;;;;;;;3.33;1.67;;;;;;;0.84;100.00;99004.44;5075268;28;20208;-76
2023/03/28 04:13:33;;;;;;;3.43;1.63;;;;;;;0.86;100.00;99006.91;5074739;28;20232;-75
2023/03/28 04:15:59;;;;;;;4.00;1.70;;;;;;;0.90;100.00;99003.06;5074882;28;20211;-76
2023/03/28 04:18:28;;;;;;;3.37;1.50;;;;;;;0.86;100.00;98996.44;5075079;28;20211;-76
2023/03/28 04:20:57;;;;;;;5.03;1.60;;;;;;;0.77;100.00;99005.09;5074960;28;20228;-76
2023/03/28 04:23:24;;;;;;;5.00;1.93;;;;;;;0.77;100.00;99007.72;5074886;28;20228;-76
2023/03/28 04:25:57;;;;;;;4.63;1.43;;;;;;;0.71;100.00;99005.66;5074715;28;20302;-76
2023/03/28 04:28:26;;;;;;;5.60;1.70;;;;;;;0.73;100.00;99008.97;5074440;28;20697;-76
2023/03/28 04:30:56;;;;;;;3.93;1.50;;;;;;;0.78;100.00;99025.06;5074694;28;20249;-75
2023/03/28 04:33:24;;;;;;;4.20;1.80;;;;;;;0.68;100.00;99025.06;5074273;28;20244;-76
2023/03/28 04:35:56;;;;;;;6.00;2.07;;;;;;;0.70;100.00;99024.91;5074611;28;20326;-76
2023/03/28 04:38:31;;;;;;;3.33;1.50;;;;;;;0.68;100.00;99032.09;5074335;28;20189;-76
2023/03/28 04:40:59;;;;;;;5.60;1.97;;;;;;;0.76;100.00;99034.88;5073943;28;20273;-76
2023/03/28 04:43:30;;;;;;;3.13;1.60;;;;;;;0.87;100.00;99035.59;5073623;28;20586;-76
2023/03/28 04:45:57;;;;;;;7.70;2.17;;;;;;;0.95;100.00;99037.53;5074058;28;20312;-76
2023/03/28 04:48:25;;;;;;;4.27;1.70;;;;;;;0.88;100.00;99039.84;5074271;28;20584;-76
2023/03/28 04:50:53;;;;;;;2.77;1.73;;;;;;;0.99;100.00;99041.53;5073860;28;20205;-76
2023/03/28 04:53:20;;;;;;;4.03;2.10;;;;;;;0.91;100.00;99046.59;5073915;28;20225;-76
2023/03/28 04:55:49;;;;;;;3.30;1.70;;;;;;;0.98;100.00;99045.13;5074612;28;20541;-76
2023/03/28 04:58:22;;;;;;;3.40;1.43;;;;;;;0.89;100.00;99043.31;5073735;28;20235;-76
2023/03/28 05:00:49;;;;;;;3.10;1.23;;;;;;;0.90;100.00;99053.63;5074124;28;20215;-76
2023/03/28 05:03:19;;;;;;;3.70;1.63;;;;;;;0.84;100.00;99045.47;5073318;28;20228;-76
2023/03/28 05:05:47;;;;;;;3.90;1.80;;;;;;;0.73;100.00;99051.66;5073586;28;20204;-76
2023/03/28 05:08:16;;;;;;;4.17;1.83;;;;;;;0.75;100.00;99049.72;5073877;28;20205;-76
2023/03/28 05:10:43;;;;;;;6.67;2.00;;;;;;;0.83;100.00;99049.06;5073374;28;20720;-76
2023/03/28 05:13:10;;;;;;;4.47;1.90;;;;;;;0.80;100.00;99058.00;5073574;28;20229;-76
2023/03/28 05:15:37;;;;;;;3.47;2.00;;;;;;;0.76;100.00;99059.22;5073560;28;20211;-76
2023/03/28 05:18:04;;;;;;;4.13;1.77;;;;;;;0.74;100.00;99057.72;5073572;28;20211;-76
2023/03/28 05:20:31;;;;;;;4.03;1.80;;;;;;;0.69;100.00;99060.75;5073353;28;20216;-76
2023/03/28 05:22:57;;;;;;;5.33;1.80;;;;;;;0.70;100.00;99065.00;5073381;28;20271;-76
2023/03/28 05:25:25;;;;;;;5.70;1.90;;;;;;;0.71;100.00;99058.81;5072667;28;20204;-76
2023/03/28 05:27:51;;;;;;;3.67;1.90;;;;;;;0.68;100.00;99064.31;5073058;28;20205;-76
2023/03/28 05:30:18;;;;;;;6.83;2.10;;;;;;;0.72;100.00;99077.97;5073058;28;20212;-76
2023/03/28 05:32:44;;;;;;;4.70;2.03;;;;;;;0.74;100.00;99076.03;5072730;28;20236;-76
2023/03/28 05:35:12;;;;;;;6.30;2.07;;;;;;;0.78;100.00;99070.41;5073072;28;20578;-76
2023/03/28 05:37:39;;;;;;;6.37;2.17;;;;;;;0.80;100.00;99081.56;5072660;28;20208;-76
2023/03/28 05:40:06;;;;;;;4.93;1.77;;;;;;;0.83;100.00;99083.94;5072974;28;20228;-76
2023/03/28 05:42:34;;;;;;;4.03;2.13;;;;;;;0.89;100.00;99078.16;5073061;28;20272;-76
2023/03/28 05:45:01;;;;;;;8.37;2.23;;;;;;;0.99;100.00;99086.03;5072943;28;20308;-76
2023/03/28 05:47:27;;;;;;;3.17;1.77;;;;;;;1.11;100.00;99090.19;5073000;28;20573;-76
2023/03/28 05:49:54;;;;;;;6.80;2.20;;;;;;;1.25;100.00;99089.78;5073187;28;20208;-76
2023/03/28 05:52:20;;;;;;;6.10;2.37;;;;;;;1.29;100.00;99093.78;5073390;28;20232;-76
2023/03/28 05:54:47;;;;;;;6.03;2.63;;;;;;;1.44;100.00;99092.47;5072933;28;20527;-76
2023/03/28 05:57:13;;;;;;;4.30;2.10;;;;;;;1.47;100.00;99098.25;5073097;28;20212;-76
2023/03/28 05:59:40;;;;;;;5.83;2.10;;;;;;;1.65;100.00;99101.84;5073003;28;20710;-76
2023/03/28 06:02:12;;;;;;;5.80;2.00;;;;;;;1.76;100.00;99101.69;5072670;28;20250;-76
2023/03/28 06:04:38;;;;;;;4.97;2.50;;;;;;;1.93;100.00;99101.00;5073093;28;20189;-76
2023/03/28 06:07:05;;;;;;;4.80;1.53;;;;;;;2.13;100.00;99104.44;5072409;28;20208;-76
2023/03/28 06:09:33;;;;;;;5.30;1.80;;;;;;;2.29;100.00;99104.66;5072191;28;20738;-76
2023/03/28 06:12:01;;;;;;;3.80;1.80;;;;;;;2.34;99.94;99112.97;5072456;28;20215;-76
2023/03/28 06:14:28;;;;;;;4.03;1.50;;;;;;;2.27;98.97;99109.22;5072256;28;20667;-76
2023/03/28 06:16:55;;;;;;;3.80;1.80;;;;;;;2.21;97.88;99122.91;5072563;28;20210;-76
2023/03/28 06:19:21;;;;;;;3.87;1.70;;;;;;;2.32;98.05;99118.34;5072594;28;20204;-77
2023/03/28 06:21:48;;;;;;;6.53;1.73;;;;;;;2.28;95.39;99122.22;5072335;28;20201;-76
2023/03/28 06:24:14;;;;;;;5.03;2.10;;;;;;;2.38;97.46;99127.41;5072570;28;20200;-77
2023/03/28 06:26:40;;;;;;;4.03;2.10;;;;;;;2.42;95.67;99126.16;5072287;28;20239;-77
2023/03/28 06:29:07;;;;;;;5.17;1.90;;;;;;;2.39;95.76;99129.91;5072790;28;20205;-77
2023/03/28 06:31:34;;;;;;;6.80;1.83;;;;;;;2.58;97.83;99129.03;5072410;28;20201;-77
2023/03/28 06:34:00;;;;;;;4.00;1.67;;;;;;;2.50;93.62;99128.91;5072027;28;20259;-77
2023/03/28 06:36:27;;;;;;;10.77;2.23;;;;;;;2.53;93.72;99129.47;5073796;28;20216;-76
2023/03/28 06:38:53;;;;;;;3.80;1.80;;;;;;;2.58;92.71;99131.66;5076765;28;20214;-76
2023/03/28 06:41:20;;;;;;;5.47;2.43;;;;;;;2.69;92.66;99132.31;5075928;28;20245;-76
2023/03/28 06:43:47;;;;;;;10.87;2.50;;;;;;;2.57;91.96;99130.03;5075997;28;20232;-76
2023/03/28 06:46:15;;;;;;;5.30;2.00;;;;;;;2.64;91.21;99136.34;5076352;28;20235;-76
2023/03/28 06:48:41;;;;;;;6.10;2.30;;;;;;;2.71;91.56;99142.69;5076571;28;20235;-76
2023/03/28 06:51:08;;;;;;;7.57;2.37;;;;;;;2.79;90.79;99142.78;5076205;28;20203;-76
2023/03/28 06:53:35;;;;;;;4.73;2.50;;;;;;;2.84;91.83;99148.44;5075693;28;20224;-76
2023/03/28 06:56:02;;;;;;;4.60;2.23;;;;;;;2.86;90.31;99142.09;5075564;28;20258;-76
2023/03/28 06:58:28;;;;;;;6.20;2.37;;;;;;;2.85;90.44;99144.84;5075864;28;20643;-76
2023/03/28 07:00:55;;;;;;;4.47;2.23;;;;;;;2.93;90.95;99150.22;5076028;28;20232;-76
2023/03/28 07:03:21;;;;;;;6.20;2.27;;;;;;;2.86;89.99;99146.50;5075745;28;20593;-76
2023/03/28 07:05:48;;;;;;;5.83;2.50;;;;;;;2.88;90.36;99149.78;5075892;28;20572;-76
2023/03/28 07:08:14;;;;;;;8.00;2.40;;;;;;;2.79;90.37;99150.66;5076173;28;20204;-76
2023/03/28 07:10:41;;;;;;;4.77;2.40;;;;;;;2.85;90.14;99155.34;5075899;28;20201;-76
2023/03/28 07:13:08;;;;;;;5.87;2.27;;;;;;;2.98;90.78;99140.91;5075744;28;20234;-76
2023/03/28 07:15:34;;;;;;;8.57;2.40;;;;;;;3.12;89.76;99152.75;5075837;28;20204;-76
2023/03/28 07:18:01;;;;;;;6.07;1.83;;;;;;;3.07;87.41;99158.41;5075711;28;20219;-76
2023/03/28 07:20:28;;;;;;;8.13;2.37;;;;;;;3.24;87.88;99152.41;5075695;28;20622;-76
2023/03/28 07:22:54;;;;;;;4.53;1.90;;;;;;;3.08;85.53;99151.38;5075963;28;20578;-76
2023/03/28 07:25:20;;;;;;;4.30;2.00;;;;;;;3.12;86.79;99153.56;5075821;28;20215;-76
2023/03/28 07:27:47;;;;;;;5.03;2.00;;;;;;;3.20;84.78;99160.75;5075501;28;20204;-76
2023/03/28 07:30:14;;;;;;;5.23;2.00;;;;;;;3.25;85.35;99156.69;5075178;28;20216;-76
2023/03/28 07:32:40;;;;;;;5.67;2.27;;;;;;;3.32;84.94;99152.50;5075311;28;20331;-76
2023/03/28 07:35:08;;;;;;;6.03;2.00;;;;;;;3.59;85.50;99144.59;5075582;28;20205;-76
2023/03/28 07:37:34;;;;;;;7.67;2.40;;;;;;;3.53;85.17;99147.78;5075483;28;20204;-76
2023/03/28 07:40:01;;;;;;;7.97;2.00;;;;;;;3.55;84.88;99150.28;5075277;28;20319;-76
2023/03/28 07:42:27;;;;;;;4.00;2.37;;;;;;;3.50;83.09;99150.75;5075068;28;20221;-76
2023/03/28 07:44:54;;;;;;;5.47;2.20;;;;;;;3.45;82.38;99160.03;5075224;28;20216;-76
2023/03/28 07:47:21;;;;;;;7.40;2.20;;;;;;;3.45;83.43;99160.03;5074617;28;20257;-77
2023/03/28 07:49:47;;;;;;;11.03;2.53;;;;;;;3.58;84.38;99166.59;5075095;28;20734;-76
2023/03/28 07:52:14;;;;;;;7.90;2.57;;;;;;;3.55;81.65;99166.88;5075120;28;20224;-76
2023/03/28 07:54:41;;;;;;;3.77;2.20;;;;;;;3.64;83.19;99171.25;5075252;28;20209;-76
2023/03/28 07:57:07;;;;;;;7.03;2.13;;;;;;;3.52;81.40;99174.25;5075242;28;20569;-76
2023/03/28 07:59:33;;;;;;;4.50;2.40;;;;;;;3.55;80.89;99173.94;5074373;28;20209;-76
2023/03/28 08:02:00;;;;;;;5.73;2.10;;;;;;;3.60;81.17;99171.69;5075055;28;20208;-76
2023/03/28 08:04:26;;;;;;;4.00;2.10;;;;;;;3.67;80.29;99178.84;5075086;28;20208;-76
2023/03/28 08:06:53;;;;;;;5.70;2.30;;;;;;;3.63;79.51;99187.19;5075056;28;20273;-77
2023/03/28 08:09:20;;;;;;;4.00;2.27;;;;;;;3.76;81.02;99185.03;5075113;28;20209;-76
2023/03/28 08:11:47;;;;;;;9.47;2.67;;;;;;;3.88;80.69;99183.84;5074369;28;20667;-76
2023/03/28 08:14:16;;;;;;;5.17;2.20;;;;;;;4.12;80.40;99176.97;5075188;28;20211;-76
2023/03/28 08:16:43;;;;;;;7.20;2.07;;;;;;;4.18;80.64;99175.56;5074865;28;20205;-76
2023/03/28 08:19:10;;;;;;;5.60;2.53;;;;;;;4.25;78.27;99177.41;5074952;28;20204;-76
2023/03/28 08:21:36;;;;;;;4.00;1.90;;;;;;;4.35;77.70;99188.72;5074747;28;20228;-77
2023/03/28 08:24:04;;;;;;;3.67;1.83;;;;;;;4.19;75.59;99188.56;5074677;28;20384;-76
2023/03/28 08:26:31;;;;;;;4.73;1.80;;;;;;;4.24;74.53;99196.81;5074196;28;20254;-76
2023/03/28 08:28:58;;;;;;;6.27;2.10;;;;;;;4.38;73.09;99193.66;5074547;28;20548;-76
2023/03/28 08:31:27;;;;;;;4.53;1.93;;;;;;;4.22;70.82;99192.69;5074154;28;20200;-76
2023/03/28 08:33:55;;;;;;;3.03;1.43;;;;;;;4.30;74.04;99187.50;5074150;28;20236;-76
2023/03/28 08:36:23;;;;;;;5.47;1.83;;;;;;;4.22;74.74;99188.28;5074017;28;20303;-76
2023/03/28 08:38:52;;;;;;;4.70;1.90;;;;;;;4.33;73.53;99193.28;5074537;28;20227;-76
2023/03/28 08:41:39;;;;;;;2.80;1.47;;;;;;;4.35;73.04;99191.34;5074950;28;20315;-76
2023/03/28 08:44:39;;;;;;;3.30;1.80;;;;;;;4.61;70.13;99188.75;5074286;28;20311;-76
2023/03/28 08:47:13;;;;;;;5.70;1.40;;;;;;;4.56;67.77;99201.53;5057306;28;20189;-76
2023/03/28 08:50:07;;;;;;;4.27;1.97;;;;;;;4.44;70.51;99203.56;5074313;28;20199;-76
2023/03/28 08:52:35;;;;;;;5.10;1.67;;;;;;;4.31;71.95;99200.53;5074237;28;20236;-76
2023/03/28 08:55:36;;;;;;;3.57;1.90;;;;;;;4.38;69.03;99192.84;5056465;28;20695;-76
2023/03/28 08:58:04;;;;;;;7.67;1.90;;;;;;;4.61;70.40;99189.53;5063101;28;20675;-76
2023/03/28 09:00:35;;;;;;;2.80;1.73;;;;;;;4.74;68.29;99197.06;5073333;28;20274;-76
2023/03/28 09:03:02;;;;;;;4.33;1.70;;;;;;;4.81;69.06;99192.81;5073534;28;20260;-76
2023/03/28 09:05:46;;;;;;;4.03;1.77;;;;;;;4.76;66.10;99197.72;5073388;28;20290;-76
2023/03/28 09:08:33;;;;;;;3.60;1.50;;;;;;;4.99;65.98;99183.03;5056759;28;20217;-76
2023/03/28 09:11:08;;;;;;;3.80;1.30;;;;;;;5.07;61.23;99191.81;5074092;28;20185;-76
2023/03/28 09:14:06;;;;;;;5.23;1.50;;;;;;;5.11;59.81;99192.34;5055777;28;20730;-76
2023/03/28 09:16:58;;;;;;;5.17;1.13;;;;;;;5.08;56.74;99198.75;5059312;28;20192;-76
2023/03/28 09:19:55;;;;;;;1.63;1.33;;;;;;;5.02;56.12;99199.34;5073485;28;20196;-76
2023/03/28 09:22:30;;;;;;;3.80;1.30;;;;;;;5.22;56.20;99194.69;5055886;28;20220;-76
2023/03/28 09:25:23;;;;;;;4.23;1.23;;;;;;;5.75;60.04;99188.13;5055899;28;20193;-76
2023/03/28 09:28:16;;;;;;;3.47;1.17;;;;;;;5.93;60.82;99185.41;5073386;28;20189;-76
2023/03/28 09:30:50;;;;;;;5.07;1.40;;;;;;;5.57;57.28;99203.25;5073526;28;20195;-76
2023/03/28 09:33:26;;;;;;;3.97;1.33;;;;;;;5.86;57.66;99194.94;5073212;28;20235;-76
2023/03/28 09:35:55;;;;;;;4.00;1.33;;;;;;;5.87;59.32;99196.59;5055664;28;20188;-76
2023/03/28 09:38:35;;;;;;;4.83;1.60;;;;;;;5.68;58.41;99189.78;5073425;28;20345;-76
2023/03/28 09:41:07;;;;;;;4.23;1.30;;;;;;;5.79;57.24;99192.09;5073260;28;20671;-76
2023/03/28 09:43:55;;;;;;;3.07;1.40;;;;;;;6.76;62.37;99190.38;5039097;28;20228;-76
2023/03/28 09:46:36;;;;;;;2.63;1.27;;;;;;;6.50;54.48;99192.38;5072791;28;20683;-76
2023/03/28 09:49:02;;;;;;;3.57;1.10;;;;;;;6.62;56.92;99189.25;5073140;28;20197;-76
2023/03/28 09:51:28;;;;;;;1.70;1.00;;;;;;;6.21;50.48;99186.75;5072921;28;20196;-76
2023/03/28 09:53:55;;;;;;;3.83;1.47;;;;;;;6.20;53.03;99185.13;5073121;28;20232;-76
2023/03/28 09:56:32;;;;;;;4.60;1.50;;;;;;;6.51;54.02;99181.66;5073263;28;20205;-76
2023/03/28 09:59:01;;;;;;;4.30;1.40;;;;;;;6.56;53.54;99181.16;5073764;28;20185;-76
2023/03/28 10:01:39;;;;;;;2.23;1.37;;;;;;;7.12;55.32;99178.41;5072844;28;20231;-76
2023/03/28 10:04:10;;;;;;;3.70;1.13;;;;;;;7.31;54.41;99175.34;5073012;28;20224;-76
2023/03/28 10:06:38;;;;;;;2.53;1.13;;;;;;;6.99;50.79;99171.00;5055049;28;20737;-76
2023/03/28 10:09:25;;;;;;;4.03;1.10;;;;;;;6.74;50.77;99169.41;5073080;28;20212;-76
2023/03/28 10:12:00;;;;;;;2.40;1.43;;;;;;;6.49;51.02;99172.25;5072801;28;20219;-76
2023/03/28 10:14:46;;;;;;;3.07;1.27;;;;;;;6.59;52.93;99167.59;5072524;28;20231;-76
2023/03/28 10:17:22;;;;;;;1.87;1.37;;;;;;;6.66;52.63;99169.41;5072524;28;20651;-76
2023/03/28 10:19:50;;;;;;;5.70;1.40;;;;;;;7.18;52.81;99167.13;5072715;28;20189;-76
2023/03/28 10:22:24;;;;;;;4.13;1.37;;;;;;;7.38;53.16;99161.28;5072701;28;20311;-76
2023/03/28 10:24:50;;;;;;;2.40;1.27;;;;;;;7.65;51.59;99152.06;5073006;28;20624;-76
2023/03/28 10:27:24;;;;;;;4.83;1.57;;;;;;;7.41;56.37;99149.53;5073180;28;20561;-76
2023/03/28 10:29:53;;;;;;;4.43;1.87;;;;;;;6.66;54.78;99148.25;5072473;28;20188;-76
2023/03/28 10:32:30;;;;;;;2.70;1.50;;;;;;;6.67;55.11;99154.38;5072492;28;20229;-75
2023/03/28 10:35:22;;;;;;;2.00;1.40;;;;;;;6.45;53.66;99149.78;5072680;28;20192;-75
2023/03/28 10:37:54;;;;;;;2.57;1.37;;;;;;;6.33;57.75;99145.84;5072262;28;20209;-76
2023/03/28 10:40:20;;;;;;;4.67;1.80;;;;;;;6.46;54.59;99141.69;5072678;28;20185;-76
2023/03/28 10:42:50;;;;;;;3.30;1.57;;;;;;;6.14;54.81;99138.22;5071993;28;20633;-76
2023/03/28 10:45:19;;;;;;;4.23;1.60;;;;;;;6.12;54.90;99146.34;5072641;28;20211;-76
2023/03/28 10:47:49;;;;;;;3.00;1.53;;;;;;;6.27;53.75;99146.50;5072727;28;20278;-76
2023/03/28 10:50:29;;;;;;;5.13;1.47;;;;;;;6.56;53.54;99149.47;5072834;28;20307;-76
2023/03/28 10:53:15;;;;;;;4.17;1.40;;;;;;;6.44;53.21;99148.97;5072512;28;20230;-76
2023/03/28 10:56:06;;;;;;;3.33;1.20;;;;;;;6.31;51.91;99143.38;5039279;28;20212;-76
2023/03/28 10:58:37;;;;;;;2.47;1.20;;;;;;;5.97;51.24;99147.16;5054404;28;20204;-76
2023/03/28 11:01:24;;;;;;;4.60;1.70;;;;;;;5.89;52.69;99140.03;5072029;28;20213;-76
2023/03/28 11:03:50;;;;;;;4.53;1.47;;;;;;;6.23;54.48;99134.59;5072505;28;20235;-76
2023/03/28 11:06:29;;;;;;;2.73;1.60;;;;;;;6.50;52.83;99134.25;5072038;28;20212;-76
2023/03/28 11:09:15;;;;;;;3.70;1.50;;;;;;;6.92;50.66;99126.91;5072521;28;20189;-76
2023/03/28 11:11:57;;;;;;;2.20;1.33;;;;;;;7.06;53.18;99126.22;5072072;28;20701;-76
2023/03/28 11:14:53;;;;;;;5.50;1.50;;;;;;;7.39;51.16;99130.38;5053629;28;20563;-76
2023/03/28 11:17:34;;;;;;;2.33;1.40;;;;;;;7.76;50.75;99117.25;5039401;28;20189;-76
2023/03/28 11:20:25;;;;;;;4.33;2.10;;;;;;;7.94;49.82;99123.09;5072523;28;20188;-75
2023/03/28 11:22:52;;;;;;;1.60;1.20;;;;;;;7.87;48.54;99111.56;5055832;28;20217;-76
2023/03/28 11:25:38;;;;;;;3.33;1.50;;;;;;;7.69;48.77;99106.53;5075823;28;20204;-76
2023/03/28 11:28:27;;;;;;;1.83;1.10;;;;;;;7.68;47.98;99109.34;5075422;28;20185;-76
2023/03/28 11:30:58;;;;;;;2.80;1.30;;;;;;;7.43;47.56;99118.44;5058002;28;20189;-76
2023/03/28 11:33:52;;;;;;;4.10;1.50;;;;;;;7.76;50.19;99102.19;5075332;28;20232;-76
2023/03/28 11:36:28;;;;;;;1.80;1.13;;;;;;;7.85;47.83;99106.44;5075149;28;20636;-76
2023/03/28 11:39:01;;;;;;;2.40;1.30;;;;;;;7.59;48.52;99107.75;5058245;28;20199;-76
2023/03/28 11:41:32;;;;;;;3.37;1.30;;;;;;;7.42;49.52;99096.44;5075017;28;20216;-75
2023/03/28 11:44:20;;;;;;;3.47;1.50;;;;;;;7.63;49.47;99090.53;5075464;28;20224;-76
2023/03/28 11:47:06;;;;;;;2.97;1.60;;;;;;;7.47;49.14;99086.16;5075711;28;20196;-76
2023/03/28 11:49:36;;;;;;;5.00;1.43;;;;;;;7.99;50.11;99081.00;5058219;28;20195;-75
2023/03/28 11:52:19;;;;;;;3.73;1.43;;;;;;;8.32;46.93;99080.59;5075024;28;20213;-76
2023/03/28 11:54:56;;;;;;;3.80;1.73;;;;;;;8.20;47.96;99078.53;5074877;28;20192;-76
2023/03/28 11:57:38;;;;;;;2.90;1.20;;;;;;;8.45;46.27;99075.50;5057162;28;20666;-76
2023/03/28 12:00:22;;;;;;;2.10;1.27;;;;;;;8.86;46.75;99065.25;5058103;28;20242;-76